createdAt,value
2022-10-02T00:00:06.860Z,64.69
2022-10-02T00:03:23.225Z,64.70
2022-10-02T00:05:58.990Z,64.72
2022-10-02T00:08:35.092Z,64.68
2022-10-02T00:11:19.214Z,64.68
2022-10-02T00:13:51.127Z,64.53
2022-10-02T00:16:32.813Z,64.80
2022-10-02T00:19:00.146Z,64.67
2022-10-02T00:22:05.677Z,64.57
2022-10-02T00:24:50.241Z,64.78
2022-10-02T00:27:56.555Z,64.69
2022-10-02T00:30:23.262Z,65.07
2022-10-02T00:33:06.236Z,64.84
2022-10-02T00:35:57.808Z,64.81
2022-10-02T00:38:42.019Z,64.87
2022-10-02T00:41:30.144Z,64.77
2022-10-02T00:44:27.972Z,65.02
2022-10-02T00:47:21.438Z,64.89
2022-10-02T00:50:23.507Z,64.81
2022-10-02T00:53:08.289Z,64.78
2022-10-02T00:55:44.328Z,64.89
2022-10-02T00:58:53.831Z,64.85
2022-10-02T01:01:36.198Z,64.73
2022-10-02T01:04:08.524Z,64.84
2022-10-02T01:06:41.098Z,64.64
2022-10-02T01:09:08.402Z,64.80
2022-10-02T01:11:36.669Z,64.57
2022-10-02T01:14:03.263Z,64.66
2022-10-02T01:16:30.845Z,64.71
2022-10-02T01:18:57.484Z,64.70
2022-10-02T01:21:41.545Z,64.74
2022-10-02T01:24:31.312Z,64.63
2022-10-02T01:26:58.264Z,64.86
2022-10-02T01:29:24.832Z,64.63
2022-10-02T01:31:51.749Z,64.80
2022-10-02T01:34:20.193Z,64.88
2022-10-02T01:36:47.446Z,64.65
2022-10-02T01:39:14.577Z,64.68
2022-10-02T01:41:44.010Z,64.74
2022-10-02T01:44:12.414Z,64.90
2022-10-02T01:47:04.988Z,64.86
2022-10-02T01:50:01.316Z,64.79
2022-10-02T01:52:43.600Z,64.86
2022-10-02T01:55:18.877Z,64.88
2022-10-02T01:58:28.996Z,64.93
2022-10-02T02:01:31.230Z,64.95
2022-10-02T02:04:08.619Z,64.92
2022-10-02T02:07:02.768Z,64.69
2022-10-02T02:10:06.410Z,64.84
2022-10-02T02:12:44.312Z,65.01
2022-10-02T02:15:25.206Z,64.98
2022-10-02T02:18:15.916Z,65.12
2022-10-02T02:20:47.419Z,64.91
2022-10-02T02:23:19.620Z,64.79
2022-10-02T02:25:52.001Z,64.93
2022-10-02T02:28:22.718Z,64.74
2022-10-02T02:30:52.247Z,64.92
2022-10-02T02:33:40.587Z,65.02
2022-10-02T02:36:12.900Z,64.93
2022-10-02T02:38:51.388Z,64.92
2022-10-02T02:41:25.721Z,64.87
2022-10-02T02:44:07.410Z,64.86
2022-10-02T02:47:04.770Z,65.08
2022-10-02T02:49:53.218Z,64.67
2022-10-02T02:52:26.256Z,64.90
2022-10-02T02:55:01.179Z,64.90
2022-10-02T02:57:34.694Z,65.03
2022-10-02T03:00:04.958Z,64.99
2022-10-02T03:02:32.376Z,64.85
2022-10-02T03:04:58.917Z,65.10
2022-10-02T03:07:25.673Z,65.07
2022-10-02T03:10:09.659Z,65.03
2022-10-02T03:12:57.587Z,64.98
2022-10-02T03:15:35.215Z,65.08
2022-10-02T03:18:31.083Z,64.93
2022-10-02T03:21:12.461Z,65.25
2022-10-02T03:23:53.360Z,64.99
2022-10-02T03:26:30.374Z,65.02
2022-10-02T03:29:00.833Z,65.15
2022-10-02T03:31:31.336Z,65.04
2022-10-02T03:34:00.496Z,65.19
2022-10-02T03:36:27.924Z,65.05
2022-10-02T03:39:23.611Z,65.18
2022-10-02T03:41:46.716Z,65.13
2022-10-02T03:44:13.434Z,65.25
2022-10-02T03:46:40.537Z,65.34
2022-10-02T03:49:07.221Z,65.32
2022-10-02T03:51:34.286Z,65.28
2022-10-02T03:54:00.715Z,65.37
2022-10-02T03:56:40.814Z,65.43
2022-10-02T03:59:15.842Z,65.33
2022-10-02T04:01:49.269Z,65.27
2022-10-02T04:04:23.323Z,65.66
2022-10-02T04:07:15.863Z,65.42
2022-10-02T04:09:53.474Z,65.38
2022-10-02T04:12:28.602Z,65.35
2022-10-02T04:14:59.142Z,65.56
2022-10-02T04:17:31.580Z,65.41
2022-10-02T04:20:16.386Z,65.27
2022-10-02T04:22:50.288Z,65.44
2022-10-02T04:25:44.588Z,65.24
2022-10-02T04:28:16.965Z,65.42
2022-10-02T04:30:43.542Z,65.37
2022-10-02T04:33:18.159Z,65.38
2022-10-02T04:36:09.846Z,65.39
2022-10-02T04:39:11.824Z,65.40
2022-10-02T04:41:53.944Z,65.34
2022-10-02T04:44:55.214Z,65.33
2022-10-02T04:47:48.809Z,65.38
2022-10-02T04:50:31.137Z,65.41
2022-10-02T04:53:19.554Z,65.46
2022-10-02T04:56:16.628Z,65.31
2022-10-02T04:59:07.552Z,65.48
2022-10-02T05:02:11.709Z,65.56
2022-10-02T05:05:05.585Z,65.48
2022-10-02T05:08:03.708Z,65.35
2022-10-02T05:11:08.785Z,65.54
2022-10-02T05:13:51.822Z,65.60
2022-10-02T05:17:09.515Z,65.57
2022-10-02T05:19:57.633Z,65.29
2022-10-02T05:22:49.513Z,65.29
2022-10-02T05:25:45.550Z,65.23
2022-10-02T05:28:34.179Z,65.41
2022-10-02T05:31:30.232Z,65.14
2022-10-02T05:34:16.447Z,65.08
2022-10-02T05:37:07.572Z,65.22
2022-10-02T05:39:44.356Z,64.99
2022-10-02T05:42:52.744Z,65.21
2022-10-02T05:45:40.156Z,65.08
2022-10-02T05:48:22.521Z,65.17
2022-10-02T05:50:54.659Z,65.14
2022-10-02T05:53:35.590Z,65.05
2022-10-02T05:56:11.612Z,65.22
2022-10-02T05:58:47.833Z,64.92
2022-10-02T06:01:28.874Z,65.10
2022-10-02T06:04:09.293Z,65.12
2022-10-02T06:06:46.575Z,64.90
2022-10-02T06:09:20.298Z,64.73
2022-10-02T06:11:50.900Z,64.97
2022-10-02T06:14:27.193Z,64.80
2022-10-02T06:17:49.097Z,64.80
2022-10-02T06:20:40.278Z,64.67
2022-10-02T06:23:19.938Z,64.65
2022-10-02T06:26:00.818Z,64.71
2022-10-02T06:28:42.290Z,64.63
2022-10-02T06:31:21.219Z,64.64
2022-10-02T06:33:47.847Z,64.70
2022-10-02T06:36:51.615Z,64.70
2022-10-02T06:39:51.058Z,64.67
2022-10-02T06:42:43.216Z,64.57
2022-10-02T06:45:24.557Z,64.83
2022-10-02T06:47:50.855Z,64.52
2022-10-02T06:51:03.213Z,64.49
2022-10-02T06:53:43.416Z,64.55
2022-10-02T06:56:49.607Z,64.44
2022-10-02T06:59:45.355Z,64.35
2022-10-02T07:02:32.189Z,63.99
2022-10-02T07:05:23.929Z,64.09
2022-10-02T07:08:19.277Z,63.98
2022-10-02T07:11:44.775Z,63.43
2022-10-02T07:14:36.686Z,63.56
2022-10-02T07:17:16.151Z,63.71
2022-10-02T07:20:11.799Z,63.71
2022-10-02T07:23:15.809Z,63.76
2022-10-02T07:26:15.753Z,63.55
2022-10-02T07:28:59.285Z,63.69
2022-10-02T07:31:57.433Z,63.61
2022-10-02T07:34:44.001Z,63.39
2022-10-02T07:37:50.713Z,63.68
2022-10-02T07:40:17.079Z,63.33
2022-10-02T07:43:06.767Z,63.17
2022-10-02T07:45:41.670Z,63.24
2022-10-02T07:48:28.190Z,63.10
2022-10-02T07:51:03.996Z,62.21
2022-10-02T07:53:50.605Z,62.64
2022-10-02T07:56:22.159Z,62.66
2022-10-02T07:59:04.115Z,62.57
2022-10-02T08:01:36.398Z,62.37
2022-10-02T08:04:09.986Z,62.61
2022-10-02T08:06:38.808Z,62.68
2022-10-02T08:09:19.658Z,62.27
2022-10-02T08:12:07.401Z,61.90
2022-10-02T08:14:41.143Z,62.37
2022-10-02T08:17:35.095Z,62.34
2022-10-02T08:20:15.094Z,61.93
2022-10-02T08:22:51.218Z,62.00
2022-10-02T08:25:25.830Z,61.67
2022-10-02T08:28:48.327Z,61.39
2022-10-02T08:31:15.478Z,61.34
2022-10-02T08:33:42.725Z,61.41
2022-10-02T08:36:42.237Z,61.24
2022-10-02T08:40:09.113Z,61.46
2022-10-02T08:42:47.603Z,61.31
2022-10-02T08:45:52.292Z,61.64
2022-10-02T08:49:16.704Z,61.83
2022-10-02T08:52:20.555Z,61.71
2022-10-02T08:55:25.634Z,61.47
2022-10-02T08:58:10.501Z,61.63
2022-10-02T09:01:06.624Z,61.68
2022-10-02T09:04:20.078Z,61.06
2022-10-02T09:07:34.784Z,61.12
2022-10-02T09:10:36.477Z,60.92
2022-10-02T09:13:32.558Z,60.86
2022-10-02T09:16:10.384Z,60.79
2022-10-02T09:18:55.400Z,60.43
2022-10-02T09:21:42.512Z,60.55
2022-10-02T09:24:50.528Z,60.61
2022-10-02T09:27:43.296Z,60.58
2022-10-02T09:30:48.757Z,60.27
2022-10-02T09:33:36.346Z,59.88
2022-10-02T09:36:47.308Z,59.75
2022-10-02T09:39:54.545Z,59.79
2022-10-02T09:43:24.254Z,59.65
2022-10-02T09:46:21.113Z,59.67
2022-10-02T09:49:44.979Z,59.78
2022-10-02T09:53:02.932Z,59.39
2022-10-02T09:55:57.459Z,59.42
2022-10-02T09:59:17.893Z,58.70
2022-10-02T10:02:25.836Z,58.74
2022-10-02T10:05:43.980Z,58.06
2022-10-02T10:08:34.655Z,58.04
2022-10-02T10:11:35.316Z,58.45
2022-10-02T10:14:24.352Z,57.81
2022-10-02T10:17:39.234Z,57.52
2022-10-02T10:20:53.994Z,57.77
2022-10-02T10:23:50.646Z,57.29
2022-10-02T10:26:43.600Z,56.93
2022-10-02T10:29:47.095Z,57.43
2022-10-02T10:32:33.066Z,56.91
2022-10-02T10:35:34.855Z,56.09
2022-10-02T10:38:32.504Z,56.15
2022-10-02T10:41:40.670Z,55.68
2022-10-02T10:44:42.601Z,55.63
2022-10-02T10:47:23.057Z,55.86
2022-10-02T10:50:17.148Z,55.90
2022-10-02T10:53:12.574Z,55.21
2022-10-02T10:56:22.050Z,55.48
2022-10-02T10:59:24.413Z,55.02
2022-10-02T11:02:20.362Z,53.94
2022-10-02T11:05:33.710Z,54.23
2022-10-02T11:08:40.355Z,54.08
2022-10-02T11:11:18.065Z,52.98
2022-10-02T11:14:22.190Z,52.81
2022-10-02T11:17:18.982Z,52.41
2022-10-02T11:20:05.401Z,52.37
2022-10-02T11:23:21.381Z,53.23
2022-10-02T11:26:10.834Z,52.91
2022-10-02T11:29:15.104Z,53.13
2022-10-02T11:32:34.461Z,52.87
2022-10-02T11:35:36.606Z,53.25
2022-10-02T11:38:51.405Z,52.83
2022-10-02T11:41:46.284Z,52.39
2022-10-02T11:44:22.549Z,52.62
2022-10-02T11:47:28.086Z,52.51
2022-10-02T11:50:24.270Z,52.74
2022-10-02T11:53:33.912Z,52.52
2022-10-02T11:57:05.435Z,52.47
2022-10-02T11:59:42.765Z,51.38
2022-10-02T12:02:50.701Z,51.34
2022-10-02T12:05:54.753Z,52.05
2022-10-02T12:08:57.516Z,52.17
2022-10-02T12:11:49.617Z,52.44
2022-10-02T12:15:08.017Z,52.68
2022-10-02T12:18:03.139Z,52.93
2022-10-02T12:20:59.353Z,52.81
2022-10-02T12:24:08.746Z,53.37
2022-10-02T12:27:12.798Z,54.03
2022-10-02T12:29:58.826Z,54.62
2022-10-02T12:33:07.645Z,55.09
2022-10-02T12:35:58.136Z,55.43
2022-10-02T12:38:50.374Z,55.56
2022-10-02T12:41:42.157Z,55.65
2022-10-02T12:44:52.166Z,55.90
2022-10-02T12:47:51.953Z,56.06
2022-10-02T12:50:46.619Z,56.43
2022-10-02T12:53:50.817Z,56.55
2022-10-02T12:56:52.298Z,56.68
2022-10-02T12:59:48.990Z,56.85
2022-10-02T13:02:59.647Z,56.64
2022-10-02T13:06:06.333Z,56.60
2022-10-02T13:08:43.233Z,56.69
2022-10-02T13:11:30.375Z,56.88
2022-10-02T13:14:42.094Z,57.09
2022-10-02T13:17:35.406Z,56.79
2022-10-02T13:20:27.501Z,56.79
2022-10-02T13:23:41.109Z,56.93
2022-10-02T13:26:26.379Z,56.93
2022-10-02T13:29:34.049Z,56.92
2022-10-02T13:32:30.821Z,56.94
2022-10-02T13:35:24.476Z,56.68
2022-10-02T13:38:25.341Z,56.70
2022-10-02T13:41:33.423Z,56.46
2022-10-02T13:44:34.414Z,56.17
2022-10-02T13:47:21.967Z,55.77
2022-10-02T13:49:57.632Z,55.32
2022-10-02T13:53:12.263Z,55.43
2022-10-02T13:56:03.546Z,55.35
2022-10-02T13:58:56.181Z,54.72
2022-10-02T14:02:15.274Z,54.51
2022-10-02T14:04:58.684Z,54.66
2022-10-02T14:08:04.842Z,54.47
2022-10-02T14:11:08.565Z,54.51
2022-10-02T14:14:03.266Z,54.03
2022-10-02T14:17:31.149Z,53.46
2022-10-02T14:20:35.469Z,53.71
2022-10-02T14:23:39.573Z,53.10
2022-10-02T14:26:13.100Z,52.80
2022-10-02T14:28:53.155Z,52.35
2022-10-02T14:31:42.281Z,52.53
2022-10-02T14:34:31.404Z,53.23
2022-10-02T14:37:25.526Z,52.02
2022-10-02T14:40:18.802Z,50.98
2022-10-02T14:43:14.626Z,49.43
2022-10-02T14:45:57.890Z,48.44
2022-10-02T14:48:44.279Z,46.90
2022-10-02T14:51:39.569Z,45.97
2022-10-02T14:54:41.254Z,47.61
2022-10-02T14:57:29.852Z,48.74
2022-10-02T15:00:26.315Z,49.63
2022-10-02T15:03:38.609Z,50.63
2022-10-02T15:06:14.269Z,51.44
2022-10-02T15:08:47.786Z,52.06
2022-10-02T15:12:02.414Z,52.27
2022-10-02T15:14:51.194Z,52.24
2022-10-02T15:17:56.122Z,52.52
2022-10-02T15:20:48.239Z,52.48
2022-10-02T15:23:49.848Z,52.35
2022-10-02T15:26:47.780Z,52.35
2022-10-02T15:29:48.915Z,52.34
2022-10-02T15:32:43.079Z,52.53
2022-10-02T15:35:40.622Z,52.58
2022-10-02T15:38:37.682Z,52.87
2022-10-02T15:45:08.282Z,53.98
2022-10-02T15:47:50.828Z,58.82
2022-10-02T15:50:49.699Z,65.66
2022-10-02T15:53:36.896Z,71.75
2022-10-02T15:56:24.461Z,70.26
2022-10-02T15:59:34.430Z,68.03
2022-10-02T16:02:37.270Z,66.74
2022-10-02T16:05:20.202Z,66.80
2022-10-02T16:08:22.150Z,66.46
2022-10-02T16:11:26.145Z,66.61
2022-10-02T16:14:19.880Z,66.67
2022-10-02T16:17:03.476Z,66.64
2022-10-02T16:20:25.589Z,66.82
2022-10-02T16:23:28.210Z,66.73
2022-10-02T16:26:03.610Z,66.92
2022-10-02T16:28:52.118Z,66.72
2022-10-02T16:31:37.786Z,66.79
2022-10-02T16:34:23.916Z,66.10
2022-10-02T16:37:02.108Z,65.53
2022-10-02T16:39:43.723Z,65.43
2022-10-02T16:42:34.063Z,64.97
2022-10-02T16:45:54.436Z,65.09
2022-10-02T16:48:28.956Z,64.99
2022-10-02T16:51:21.457Z,64.90
2022-10-02T16:54:27.281Z,64.87
2022-10-02T16:57:00.965Z,64.83
2022-10-02T16:59:39.337Z,65.09
2022-10-02T17:02:20.281Z,64.83
2022-10-02T17:05:05.147Z,64.99
2022-10-02T17:07:53.117Z,64.89
2022-10-02T17:11:03.491Z,64.92
2022-10-02T17:14:02.303Z,65.13
2022-10-02T17:16:41.395Z,64.97
2022-10-02T17:19:27.696Z,64.69
2022-10-02T17:22:27.288Z,64.10
2022-10-02T17:25:15.245Z,63.92
2022-10-02T17:27:52.594Z,63.98
2022-10-02T17:30:27.519Z,63.71
2022-10-02T17:33:21.683Z,63.90
2022-10-02T17:35:56.377Z,63.87
2022-10-02T17:39:08.337Z,64.00
2022-10-02T17:41:57.731Z,64.08
2022-10-02T17:44:45.083Z,63.93
2022-10-02T17:47:21.135Z,63.90
2022-10-02T17:50:03.157Z,64.11
2022-10-02T17:53:36.555Z,64.08
2022-10-02T17:56:28.383Z,64.05
2022-10-02T17:59:34.880Z,64.08
2022-10-02T18:02:33.081Z,64.21
2022-10-02T18:05:49.027Z,64.12
2022-10-02T18:09:10.830Z,64.39
2022-10-02T18:12:16.865Z,64.25
2022-10-02T18:15:14.997Z,64.34
2022-10-02T18:18:15.530Z,64.41
2022-10-02T18:20:49.662Z,64.59
2022-10-02T18:23:43.262Z,64.65
2022-10-02T18:26:32.134Z,64.68
2022-10-02T18:29:23.150Z,64.64
2022-10-02T18:32:10.091Z,64.50
2022-10-02T18:34:57.820Z,64.74
2022-10-02T18:37:56.947Z,64.77
2022-10-02T18:40:52.869Z,64.69
2022-10-02T18:43:21.471Z,64.75
2022-10-02T18:46:10.445Z,64.69
2022-10-02T18:49:22.373Z,64.39
2022-10-02T18:52:20.993Z,64.59
2022-10-02T18:55:19.133Z,64.71
2022-10-02T18:58:09.177Z,64.67
2022-10-02T19:01:15.786Z,64.81
2022-10-02T19:04:05.983Z,64.56
2022-10-02T19:06:42.807Z,64.72
2022-10-02T19:09:25.125Z,64.64
2022-10-02T19:11:57.865Z,64.70
2022-10-02T19:14:36.641Z,64.57
2022-10-02T19:17:18.703Z,64.75
2022-10-02T19:19:49.164Z,64.98
2022-10-02T19:22:27.293Z,64.92
2022-10-02T19:25:08.068Z,64.99
2022-10-02T19:27:38.962Z,65.36
2022-10-02T19:30:21.884Z,65.75
2022-10-02T19:32:51.093Z,65.46
2022-10-02T19:35:33.036Z,65.82
2022-10-02T19:38:13.925Z,65.63
2022-10-02T19:40:41.424Z,65.76
2022-10-02T19:43:18.199Z,65.65
2022-10-02T19:45:56.273Z,65.79
2022-10-02T19:48:26.945Z,65.85
2022-10-02T19:51:07.225Z,65.70
2022-10-02T19:53:44.495Z,65.71
2022-10-02T19:56:23.869Z,65.71
2022-10-02T19:58:56.758Z,65.89
2022-10-02T20:01:42.454Z,65.82
2022-10-02T20:04:16.906Z,65.64
2022-10-02T20:06:52.351Z,65.62
2022-10-02T20:09:31.399Z,65.69
2022-10-02T20:12:04.058Z,65.74
2022-10-02T20:14:57.470Z,65.84
2022-10-02T20:17:24.209Z,65.74
2022-10-02T20:19:55.618Z,65.76
2022-10-02T20:22:34.433Z,65.59
2022-10-02T20:25:28.355Z,65.78
2022-10-02T20:28:13.984Z,65.65
2022-10-02T20:30:53.693Z,65.75
2022-10-02T20:33:36.346Z,65.55
2022-10-02T20:36:20.813Z,65.70
2022-10-02T20:38:52.830Z,65.75
2022-10-02T20:41:29.389Z,65.79
2022-10-02T20:44:03.788Z,65.75
2022-10-02T20:47:19.177Z,65.77
2022-10-02T20:50:06.915Z,65.69
2022-10-02T20:52:52.101Z,65.72
2022-10-02T20:55:34.289Z,65.92
2022-10-02T20:58:31.158Z,65.88
2022-10-02T21:01:15.514Z,65.91
2022-10-02T21:04:06.869Z,66.00
2022-10-02T21:06:46.263Z,65.91
2022-10-02T21:09:50.729Z,66.08
2022-10-02T21:12:56.013Z,66.00
2022-10-02T21:15:31.273Z,66.15
2022-10-02T21:18:18.687Z,66.25
2022-10-02T21:21:09.800Z,66.70
2022-10-02T21:23:45.526Z,66.59
2022-10-02T21:26:26.433Z,66.34
2022-10-02T21:29:17.554Z,66.41
2022-10-02T21:32:19.939Z,66.23
2022-10-02T21:35:48.840Z,66.39
2022-10-02T21:38:43.532Z,66.43
2022-10-02T21:41:46.513Z,66.53
2022-10-02T21:44:48.741Z,66.77
2022-10-02T21:47:39.453Z,66.64
2022-10-02T21:50:31.000Z,66.60
2022-10-02T21:53:31.414Z,66.42
2022-10-02T21:56:29.687Z,67.08
2022-10-02T21:59:19.057Z,66.98
2022-10-02T22:02:07.855Z,66.79
2022-10-02T22:05:09.290Z,66.65
2022-10-02T22:08:07.860Z,66.75
2022-10-02T22:11:00.715Z,66.77
2022-10-02T22:13:38.928Z,66.83
2022-10-02T22:16:43.877Z,66.81
2022-10-02T22:19:38.077Z,66.61
2022-10-02T22:22:24.393Z,66.97
2022-10-02T22:25:31.121Z,67.14
2022-10-02T22:28:35.867Z,67.07
2022-10-02T22:31:40.564Z,67.03
2022-10-02T22:34:24.684Z,67.16
2022-10-02T22:37:37.864Z,66.88
2022-10-02T22:40:13.398Z,67.01
2022-10-02T22:42:46.385Z,67.13
2022-10-02T22:45:41.631Z,66.92
2022-10-02T22:48:30.879Z,67.13
2022-10-02T22:51:11.512Z,66.97
2022-10-02T22:53:49.331Z,67.05
2022-10-02T22:56:38.735Z,67.09
2022-10-02T22:59:18.124Z,66.90
2022-10-02T23:02:11.047Z,66.94
2022-10-02T23:05:04.927Z,67.07
2022-10-02T23:08:05.019Z,66.84
2022-10-02T23:11:01.585Z,66.98
2022-10-02T23:13:34.821Z,66.88
2022-10-02T23:16:34.991Z,66.97
2022-10-02T23:19:32.487Z,66.92
2022-10-02T23:22:17.332Z,66.88
2022-10-02T23:24:50.773Z,66.89
2022-10-02T23:27:34.717Z,66.84
2022-10-02T23:30:31.020Z,67.02
2022-10-02T23:33:21.500Z,66.81
2022-10-02T23:36:04.388Z,67.08
2022-10-02T23:38:51.002Z,66.92
2022-10-02T23:41:36.815Z,66.95
2022-10-02T23:44:25.714Z,67.13
2022-10-02T23:47:08.466Z,67.27
2022-10-02T23:49:41.621Z,67.30
2022-10-02T23:52:46.797Z,67.20
2022-10-02T23:55:29.225Z,67.10
2022-10-02T23:58:39.692Z,67.15
